TGW3304 YMML-YSSY
Flight info
| Callsign | TGW3304 |
|---|---|
| Flight time | 1h 11m |
| Altitude | 39000 |
| Route | DOSEL Y59 RIVET |
| Aircraft | E190/M-SDE3GILORVW/S |
Departure
| Time | 2026-05-01 07:55 |
|---|---|
| Airport | Melbourne Airport (YMML) |
Arrival
| Time | 2026-05-01 09:07 |
|---|---|
| Airport | Sydney Kingsford Smith International Airport (YSSY) |
| Time | Latitude | Longitude | Altitude | Speed | Heading |
|---|---|---|---|---|---|
| 2026-05-01 07:24 | -37.67135 | 144.84540 | 391 ft | 0 kts | 351° |
| 2026-05-01 07:46 | -37.67136 | 144.84540 | 391 ft | 2 kts | 351° |
| 2026-05-01 07:46 | -37.67180 | 144.84546 | 390 ft | 5 kts | 0° |
| 2026-05-01 07:46 | -37.67208 | 144.84567 | 389 ft | 0 kts | 276° |
| 2026-05-01 07:49 | -37.67210 | 144.84518 | 388 ft | 7 kts | 271° |
| 2026-05-01 07:49 | -37.67198 | 144.84452 | 387 ft | 6 kts | 287° |
| 2026-05-01 07:50 | -37.67200 | 144.84384 | 386 ft | 10 kts | 264° |
| 2026-05-01 07:50 | -37.67308 | 144.84292 | 381 ft | 12 kts | 169° |
| 2026-05-01 07:50 | -37.67405 | 144.84308 | 378 ft | 17 kts | 170° |
| 2026-05-01 07:51 | -37.67533 | 144.84331 | 373 ft | 21 kts | 172° |
| 2026-05-01 07:51 | -37.67691 | 144.84361 | 371 ft | 25 kts | 171° |
| 2026-05-01 07:51 | -37.67812 | 144.84341 | 364 ft | 15 kts | 216° |
| 2026-05-01 07:52 | -37.67871 | 144.84123 | 364 ft | 0 kts | 261° |
| 2026-05-01 07:53 | -37.67871 | 144.84117 | 365 ft | 2 kts | 261° |
| 2026-05-01 07:53 | -37.67874 | 144.84082 | 361 ft | 5 kts | 271° |
| 2026-05-01 07:53 | -37.67862 | 144.84027 | 362 ft | 8 kts | 292° |
| 2026-05-01 07:54 | -37.67765 | 144.83948 | 367 ft | 6 kts | 352° |
| 2026-05-01 07:55 | -37.67189 | 144.83841 | 389 ft | 111 kts | 352° |
| 2026-05-01 07:55 | -37.65011 | 144.83644 | 1111 ft | 195 kts | 10° |
| 2026-05-01 07:56 | -37.60035 | 144.86030 | 2718 ft | 292 kts | 22° |
| 2026-05-01 07:56 | -37.56490 | 144.88028 | 4701 ft | 263 kts | 24° |
| 2026-05-01 07:57 | -37.54847 | 144.89024 | 4807 ft | 264 kts | 22° |
| 2026-05-01 07:57 | -37.51455 | 144.90877 | 4776 ft | 265 kts | 22° |
| 2026-05-01 07:58 | -37.48145 | 144.92664 | 6173 ft | 269 kts | 21° |
| 2026-05-01 07:58 | -37.44971 | 144.95246 | 8192 ft | 281 kts | 46° |
| 2026-05-01 07:59 | -37.42952 | 144.98472 | 10145 ft | 280 kts | 50° |
| 2026-05-01 07:59 | -37.40443 | 145.02580 | 11568 ft | 306 kts | 49° |
| 2026-05-01 08:00 | -37.34693 | 145.11149 | 15338 ft | 332 kts | 49° |
| 2026-05-01 08:01 | -37.30239 | 145.18101 | 18153 ft | 348 kts | 48° |
| 2026-05-01 08:01 | -37.28704 | 145.20485 | 18929 ft | 353 kts | 48° |
| 2026-05-01 08:01 | -37.27159 | 145.22902 | 19718 ft | 358 kts | 48° |
| 2026-05-01 08:02 | -37.24022 | 145.27839 | 21317 ft | 366 kts | 48° |
| 2026-05-01 08:02 | -37.22432 | 145.30354 | 22097 ft | 370 kts | 49° |
| 2026-05-01 08:03 | -37.19210 | 145.35470 | 23504 ft | 378 kts | 49° |
| 2026-05-01 08:03 | -37.17576 | 145.38071 | 24101 ft | 382 kts | 49° |
| 2026-05-01 08:03 | -37.14287 | 145.43581 | 24543 ft | 410 kts | 52° |
| 2026-05-01 08:04 | -37.10948 | 145.49499 | 25472 ft | 420 kts | 52° |
| 2026-05-01 08:04 | -37.07507 | 145.55490 | 26433 ft | 428 kts | 52° |
| 2026-05-01 08:05 | -37.03987 | 145.61590 | 27325 ft | 437 kts | 52° |
| 2026-05-01 08:05 | -37.02199 | 145.64684 | 27747 ft | 441 kts | 52° |
| 2026-05-01 08:05 | -37.00392 | 145.67806 | 28154 ft | 445 kts | 52° |
| 2026-05-01 08:06 | -36.96728 | 145.74131 | 28907 ft | 453 kts | 52° |
| 2026-05-01 08:06 | -36.93006 | 145.80542 | 29729 ft | 457 kts | 52° |
| 2026-05-01 08:07 | -36.89266 | 145.86972 | 30654 ft | 457 kts | 52° |
| 2026-05-01 08:07 | -36.85526 | 145.93388 | 31536 ft | 456 kts | 52° |
| 2026-05-01 08:08 | -36.83655 | 145.96594 | 31963 ft | 456 kts | 52° |
| 2026-05-01 08:08 | -36.79912 | 146.02994 | 32777 ft | 456 kts | 52° |
| 2026-05-01 08:09 | -36.76176 | 146.09374 | 33575 ft | 455 kts | 52° |
| 2026-05-01 08:09 | -36.74306 | 146.12562 | 33932 ft | 455 kts | 51° |
| 2026-05-01 08:09 | -36.72438 | 146.15744 | 34297 ft | 455 kts | 51° |
| 2026-05-01 08:10 | -36.68704 | 146.22094 | 34899 ft | 453 kts | 51° |
| 2026-05-01 08:10 | -36.64984 | 146.28410 | 35514 ft | 452 kts | 51° |
| 2026-05-01 08:11 | -36.61294 | 146.34662 | 36101 ft | 450 kts | 51° |
| 2026-05-01 08:11 | -36.57592 | 146.40923 | 36725 ft | 448 kts | 51° |
| 2026-05-01 08:12 | -36.53905 | 146.47150 | 37304 ft | 446 kts | 51° |
| 2026-05-01 08:12 | -36.52065 | 146.50254 | 37600 ft | 446 kts | 51° |
| 2026-05-01 08:12 | -36.48391 | 146.56445 | 38145 ft | 445 kts | 51° |
| 2026-05-01 08:13 | -36.46555 | 146.59534 | 38415 ft | 444 kts | 50° |
| 2026-05-01 08:13 | -36.44722 | 146.62615 | 38682 ft | 443 kts | 50° |
| 2026-05-01 08:13 | -36.41057 | 146.68767 | 39131 ft | 443 kts | 50° |
| 2026-05-01 08:14 | -36.39241 | 146.71814 | 39468 ft | 435 kts | 50° |
| 2026-05-01 08:14 | -36.37428 | 146.74850 | 39427 ft | 441 kts | 50° |
| 2026-05-01 08:14 | -36.33713 | 146.81053 | 39267 ft | 455 kts | 50° |
| 2026-05-01 08:15 | -36.28011 | 146.90568 | 39287 ft | 460 kts | 50° |
| 2026-05-01 08:16 | -36.24189 | 146.96931 | 39290 ft | 460 kts | 50° |
| 2026-05-01 08:16 | -36.20366 | 147.03283 | 39294 ft | 460 kts | 50° |
| 2026-05-01 08:17 | -36.16565 | 147.09592 | 39290 ft | 460 kts | 51° |
| 2026-05-01 08:17 | -36.12729 | 147.15994 | 39293 ft | 460 kts | 51° |
| 2026-05-01 08:18 | -36.08912 | 147.22351 | 39301 ft | 460 kts | 51° |
| 2026-05-01 08:19 | -36.01293 | 147.34999 | 39302 ft | 460 kts | 51° |
| 2026-05-01 08:19 | -35.97437 | 147.41385 | 39309 ft | 460 kts | 51° |
| 2026-05-01 08:20 | -35.93631 | 147.47675 | 39305 ft | 460 kts | 51° |
| 2026-05-01 08:20 | -35.89771 | 147.54043 | 39310 ft | 460 kts | 51° |
| 2026-05-01 08:21 | -35.85956 | 147.60323 | 39310 ft | 461 kts | 51° |
| 2026-05-01 08:21 | -35.82108 | 147.66640 | 39319 ft | 461 kts | 50° |
| 2026-05-01 08:22 | -35.78249 | 147.72938 | 39316 ft | 461 kts | 50° |
| 2026-05-01 08:22 | -35.74386 | 147.79233 | 39320 ft | 461 kts | 50° |
| 2026-05-01 08:23 | -35.70522 | 147.85521 | 39323 ft | 461 kts | 50° |
| 2026-05-01 08:23 | -35.66652 | 147.91807 | 39328 ft | 461 kts | 50° |
| 2026-05-01 08:24 | -35.62777 | 147.98090 | 39330 ft | 461 kts | 50° |
| 2026-05-01 08:24 | -35.58899 | 148.04366 | 39333 ft | 461 kts | 50° |
| 2026-05-01 08:25 | -35.55014 | 148.10641 | 39331 ft | 461 kts | 50° |
| 2026-05-01 08:25 | -35.51128 | 148.16909 | 39343 ft | 462 kts | 50° |
| 2026-05-01 08:26 | -35.47233 | 148.23179 | 39334 ft | 462 kts | 50° |
| 2026-05-01 08:26 | -35.43338 | 148.29438 | 39350 ft | 462 kts | 50° |
| 2026-05-01 08:27 | -35.39432 | 148.35699 | 39354 ft | 462 kts | 50° |
| 2026-05-01 08:27 | -35.35526 | 148.41950 | 39348 ft | 462 kts | 50° |
| 2026-05-01 08:28 | -35.31618 | 148.48196 | 39343 ft | 462 kts | 50° |
| 2026-05-01 08:28 | -35.27703 | 148.54440 | 39355 ft | 462 kts | 50° |
| 2026-05-01 08:29 | -35.23782 | 148.60683 | 39349 ft | 463 kts | 50° |
| 2026-05-01 08:29 | -35.19856 | 148.66921 | 39355 ft | 463 kts | 50° |
| 2026-05-01 08:30 | -35.15955 | 148.73109 | 39355 ft | 463 kts | 50° |
| 2026-05-01 08:30 | -35.12021 | 148.79340 | 39349 ft | 463 kts | 50° |
| 2026-05-01 08:31 | -35.08084 | 148.85563 | 39337 ft | 463 kts | 50° |
| 2026-05-01 08:31 | -35.04141 | 148.91785 | 39336 ft | 463 kts | 50° |
| 2026-05-01 08:32 | -35.00193 | 148.98004 | 39340 ft | 463 kts | 50° |
| 2026-05-01 08:32 | -34.96241 | 149.04217 | 39345 ft | 464 kts | 50° |
| 2026-05-01 08:33 | -34.92289 | 149.10421 | 39345 ft | 464 kts | 50° |
| 2026-05-01 08:33 | -34.88327 | 149.16629 | 39232 ft | 464 kts | 50° |
| 2026-05-01 08:33 | -34.86353 | 149.19720 | 38786 ft | 457 kts | 50° |
| 2026-05-01 08:34 | -34.84425 | 149.22737 | 38335 ft | 449 kts | 50° |
| 2026-05-01 08:34 | -34.82511 | 149.25725 | 37746 ft | 443 kts | 50° |
| 2026-05-01 08:34 | -34.80628 | 149.28665 | 37114 ft | 439 kts | 50° |
| 2026-05-01 08:34 | -34.78760 | 149.31578 | 36586 ft | 433 kts | 50° |
| 2026-05-01 08:35 | -34.76914 | 149.34454 | 35966 ft | 430 kts | 50° |
| 2026-05-01 08:35 | -34.75083 | 149.37306 | 35441 ft | 425 kts | 50° |
| 2026-05-01 08:35 | -34.73453 | 149.40291 | 34864 ft | 423 kts | 58° |
| 2026-05-01 08:35 | -34.72047 | 149.43410 | 34292 ft | 420 kts | 60° |
| 2026-05-01 08:36 | -34.70689 | 149.46537 | 33741 ft | 414 kts | 60° |
| 2026-05-01 08:36 | -34.69359 | 149.49610 | 33179 ft | 409 kts | 60° |
| 2026-05-01 08:36 | -34.68041 | 149.52644 | 32677 ft | 403 kts | 59° |
| 2026-05-01 08:36 | -34.66736 | 149.55638 | 32114 ft | 398 kts | 59° |
| 2026-05-01 08:37 | -34.65450 | 149.58584 | 31619 ft | 392 kts | 59° |
| 2026-05-01 08:37 | -34.64175 | 149.61500 | 31086 ft | 388 kts | 59° |
| 2026-05-01 08:37 | -34.62918 | 149.64371 | 30586 ft | 383 kts | 59° |
| 2026-05-01 08:37 | -34.61672 | 149.67213 | 30042 ft | 378 kts | 59° |
| 2026-05-01 08:38 | -34.60449 | 149.70000 | 29571 ft | 371 kts | 59° |
| 2026-05-01 08:38 | -34.59246 | 149.72740 | 29093 ft | 365 kts | 59° |
| 2026-05-01 08:38 | -34.58063 | 149.75432 | 28607 ft | 360 kts | 59° |
| 2026-05-01 08:38 | -34.56893 | 149.78092 | 28136 ft | 355 kts | 59° |
| 2026-05-01 08:39 | -34.55736 | 149.80716 | 27674 ft | 350 kts | 59° |
| 2026-05-01 08:39 | -34.54594 | 149.83307 | 27210 ft | 347 kts | 59° |
| 2026-05-01 08:39 | -34.53461 | 149.85875 | 26753 ft | 343 kts | 59° |
| 2026-05-01 08:39 | -34.52339 | 149.88414 | 26304 ft | 340 kts | 59° |
| 2026-05-01 08:40 | -34.50124 | 149.93426 | 25411 ft | 335 kts | 59° |
| 2026-05-01 08:40 | -34.49040 | 149.95877 | 24968 ft | 333 kts | 59° |
| 2026-05-01 08:40 | -34.47949 | 149.98346 | 24535 ft | 331 kts | 59° |
| 2026-05-01 08:41 | -34.46864 | 150.00803 | 24099 ft | 330 kts | 59° |
| 2026-05-01 08:41 | -34.45782 | 150.03248 | 23624 ft | 328 kts | 59° |
| 2026-05-01 08:41 | -34.44713 | 150.05663 | 23232 ft | 323 kts | 59° |
| 2026-05-01 08:41 | -34.43655 | 150.08052 | 22784 ft | 320 kts | 60° |
| 2026-05-01 08:42 | -34.42610 | 150.10410 | 22380 ft | 316 kts | 60° |
| 2026-05-01 08:42 | -34.41575 | 150.12744 | 21961 ft | 313 kts | 60° |
| 2026-05-01 08:42 | -34.40548 | 150.15056 | 21544 ft | 311 kts | 60° |
| 2026-05-01 08:42 | -34.39528 | 150.17350 | 21135 ft | 308 kts | 60° |
| 2026-05-01 08:43 | -34.38518 | 150.19624 | 20736 ft | 306 kts | 60° |
| 2026-05-01 08:43 | -34.37514 | 150.21881 | 20325 ft | 304 kts | 60° |
| 2026-05-01 08:43 | -34.36514 | 150.24126 | 19924 ft | 302 kts | 60° |
| 2026-05-01 08:43 | -34.35521 | 150.26356 | 19531 ft | 300 kts | 60° |
| 2026-05-01 08:44 | -34.34531 | 150.28580 | 19130 ft | 299 kts | 60° |
| 2026-05-01 08:44 | -34.33546 | 150.30787 | 18744 ft | 298 kts | 60° |
| 2026-05-01 08:44 | -34.32563 | 150.32991 | 18309 ft | 296 kts | 60° |
| 2026-05-01 08:44 | -34.31593 | 150.35167 | 17960 ft | 292 kts | 60° |
| 2026-05-01 08:45 | -34.30630 | 150.37320 | 17545 ft | 290 kts | 60° |
| 2026-05-01 08:45 | -34.29674 | 150.39456 | 17167 ft | 287 kts | 60° |
| 2026-05-01 08:45 | -34.28728 | 150.41571 | 16784 ft | 285 kts | 60° |
| 2026-05-01 08:45 | -34.27790 | 150.43671 | 16412 ft | 283 kts | 60° |
| 2026-05-01 08:46 | -34.26858 | 150.45754 | 16039 ft | 281 kts | 60° |
| 2026-05-01 08:46 | -34.25934 | 150.47824 | 15669 ft | 279 kts | 60° |
| 2026-05-01 08:46 | -34.25028 | 150.49851 | 15312 ft | 277 kts | 60° |
| 2026-05-01 08:46 | -34.24112 | 150.51898 | 14940 ft | 276 kts | 60° |
| 2026-05-01 08:47 | -34.23201 | 150.53934 | 14580 ft | 275 kts | 60° |
| 2026-05-01 08:47 | -34.22294 | 150.55962 | 14209 ft | 274 kts | 60° |
| 2026-05-01 08:47 | -34.21390 | 150.57977 | 13831 ft | 272 kts | 60° |
| 2026-05-01 08:47 | -34.20495 | 150.59974 | 13491 ft | 268 kts | 60° |
| 2026-05-01 08:48 | -34.19895 | 150.61309 | 13251 ft | 267 kts | 60° |
| 2026-05-01 08:48 | -34.19025 | 150.63247 | 12901 ft | 265 kts | 60° |
| 2026-05-01 08:48 | -34.18149 | 150.65198 | 12548 ft | 263 kts | 60° |
| 2026-05-01 08:48 | -34.17278 | 150.67139 | 12200 ft | 261 kts | 60° |
| 2026-05-01 08:49 | -34.16412 | 150.69060 | 11851 ft | 260 kts | 60° |
| 2026-05-01 08:49 | -34.15553 | 150.70971 | 11508 ft | 259 kts | 60° |
| 2026-05-01 08:49 | -34.14682 | 150.72905 | 10845 ft | 270 kts | 60° |
| 2026-05-01 08:49 | -34.13779 | 150.74906 | 10452 ft | 270 kts | 60° |
| 2026-05-01 08:50 | -34.12883 | 150.76892 | 10076 ft | 269 kts | 60° |
| 2026-05-01 08:50 | -34.11998 | 150.78856 | 9739 ft | 264 kts | 60° |
| 2026-05-01 08:50 | -34.11124 | 150.80793 | 9387 ft | 261 kts | 60° |
| 2026-05-01 08:50 | -34.10271 | 150.82684 | 9209 ft | 252 kts | 60° |
| 2026-05-01 08:51 | -34.09450 | 150.84502 | 9064 ft | 242 kts | 60° |
| 2026-05-01 08:51 | -34.08664 | 150.86250 | 8995 ft | 231 kts | 60° |
| 2026-05-01 08:51 | -34.07907 | 150.87934 | 8980 ft | 228 kts | 60° |
| 2026-05-01 08:51 | -34.07151 | 150.89610 | 9041 ft | 230 kts | 60° |
| 2026-05-01 08:52 | -34.06371 | 150.91334 | 8884 ft | 237 kts | 60° |
| 2026-05-01 08:52 | -34.05601 | 150.93042 | 8978 ft | 231 kts | 60° |
| 2026-05-01 08:52 | -34.04832 | 150.94750 | 8972 ft | 232 kts | 60° |
| 2026-05-01 08:52 | -34.04059 | 150.96460 | 8980 ft | 233 kts | 60° |
| 2026-05-01 08:53 | -34.03374 | 150.98232 | 8908 ft | 234 kts | 72° |
| 2026-05-01 08:53 | -34.03217 | 151.00179 | 8912 ft | 236 kts | 94° |
| 2026-05-01 08:53 | -34.03705 | 151.02074 | 8917 ft | 241 kts | 117° |
| 2026-05-01 08:53 | -34.04737 | 151.03675 | 8919 ft | 244 kts | 130° |
| 2026-05-01 08:54 | -34.05912 | 151.05157 | 8915 ft | 245 kts | 132° |
| 2026-05-01 08:54 | -34.07113 | 151.06625 | 8776 ft | 247 kts | 135° |
| 2026-05-01 08:54 | -34.08513 | 151.07735 | 9061 ft | 238 kts | 155° |
| 2026-05-01 08:54 | -34.10172 | 151.08391 | 8758 ft | 262 kts | 165° |
| 2026-05-01 08:55 | -34.11959 | 151.08829 | 8412 ft | 262 kts | 168° |
| 2026-05-01 08:55 | -34.13725 | 151.09239 | 8250 ft | 254 kts | 167° |
| 2026-05-01 08:55 | -34.15412 | 151.09655 | 8087 ft | 248 kts | 166° |
| 2026-05-01 08:55 | -34.17081 | 151.10079 | 7937 ft | 243 kts | 166° |
| 2026-05-01 08:56 | -34.18727 | 151.10505 | 7746 ft | 243 kts | 166° |
| 2026-05-01 08:56 | -34.20339 | 151.11058 | 7557 ft | 236 kts | 153° |
| 2026-05-01 08:56 | -34.21617 | 151.12168 | 7338 ft | 222 kts | 129° |
| 2026-05-01 08:56 | -34.22321 | 151.13746 | 7037 ft | 210 kts | 98° |
| 2026-05-01 08:57 | -34.22545 | 151.15459 | 6752 ft | 206 kts | 105° |
| 2026-05-01 08:57 | -34.23375 | 151.16835 | 6466 ft | 206 kts | 144° |
| 2026-05-01 08:57 | -34.24706 | 151.17334 | 6442 ft | 198 kts | 169° |
| 2026-05-01 08:57 | -34.26074 | 151.17597 | 6505 ft | 201 kts | 167° |
| 2026-05-01 08:58 | -34.27456 | 151.17934 | 6555 ft | 203 kts | 158° |
| 2026-05-01 08:58 | -34.28565 | 151.18911 | 6563 ft | 197 kts | 120° |
| 2026-05-01 08:58 | -34.28920 | 151.20481 | 6351 ft | 196 kts | 83° |
| 2026-05-01 08:58 | -34.28375 | 151.21932 | 6058 ft | 191 kts | 45° |
| 2026-05-01 08:59 | -34.27276 | 151.22836 | 5674 ft | 192 kts | 32° |
| 2026-05-01 08:59 | -34.26149 | 151.23705 | 5313 ft | 192 kts | 32° |
| 2026-05-01 08:59 | -34.24907 | 151.24274 | 4928 ft | 193 kts | 11° |
| 2026-05-01 08:59 | -34.23613 | 151.24574 | 4735 ft | 184 kts | 16° |
| 2026-05-01 09:00 | -34.22388 | 151.24935 | 4570 ft | 182 kts | 360° |
| 2026-05-01 09:00 | -34.21157 | 151.24582 | 4429 ft | 182 kts | 343° |
| 2026-05-01 09:00 | -34.19973 | 151.24183 | 4265 ft | 172 kts | 352° |
| 2026-05-01 09:00 | -34.18817 | 151.23940 | 4095 ft | 166 kts | 352° |
| 2026-05-01 09:01 | -34.17711 | 151.23640 | 3932 ft | 160 kts | 349° |
| 2026-05-01 09:01 | -34.16643 | 151.23347 | 3761 ft | 155 kts | 352° |
| 2026-05-01 09:01 | -34.15596 | 151.23082 | 3550 ft | 153 kts | 352° |
| 2026-05-01 09:01 | -34.14573 | 151.22812 | 3446 ft | 146 kts | 352° |
| 2026-05-01 09:02 | -34.13554 | 151.22544 | 3248 ft | 153 kts | 352° |
| 2026-05-01 09:02 | -34.12508 | 151.22271 | 3018 ft | 153 kts | 351° |
| 2026-05-01 09:02 | -34.11503 | 151.22007 | 2983 ft | 147 kts | 352° |
| 2026-05-01 09:02 | -34.10496 | 151.21745 | 2841 ft | 154 kts | 352° |
| 2026-05-01 09:03 | -34.09448 | 151.21470 | 2601 ft | 152 kts | 352° |
| 2026-05-01 09:03 | -34.08427 | 151.21202 | 2392 ft | 148 kts | 352° |
| 2026-05-01 09:03 | -34.07448 | 151.20947 | 2193 ft | 139 kts | 352° |
| 2026-05-01 09:03 | -34.06532 | 151.20706 | 1995 ft | 131 kts | 352° |
| 2026-05-01 09:04 | -34.05665 | 151.20480 | 1831 ft | 126 kts | 353° |
| 2026-05-01 09:04 | -34.04794 | 151.20252 | 1687 ft | 130 kts | 353° |
| 2026-05-01 09:04 | -34.03899 | 151.20019 | 1500 ft | 132 kts | 352° |
| 2026-05-01 09:04 | -34.03003 | 151.19784 | 1305 ft | 132 kts | 351° |
| 2026-05-01 09:05 | -34.02116 | 151.19535 | 1118 ft | 130 kts | 352° |
| 2026-05-01 09:05 | -34.01236 | 151.19313 | 944 ft | 129 kts | 352° |
| 2026-05-01 09:05 | -34.00356 | 151.19069 | 802 ft | 131 kts | 349° |
| 2026-05-01 09:05 | -33.99468 | 151.18855 | 638 ft | 130 kts | 352° |
| 2026-05-01 09:06 | -33.98584 | 151.18632 | 426 ft | 133 kts | 348° |
| 2026-05-01 09:06 | -33.97700 | 151.18386 | 291 ft | 129 kts | 349° |
| 2026-05-01 09:06 | -33.96817 | 151.18163 | 142 ft | 131 kts | 350° |
| 2026-05-01 09:06 | -33.95938 | 151.17939 | 21 ft | 122 kts | 348° |
| 2026-05-01 09:07 | -33.95275 | 151.17764 | 22 ft | 56 kts | 348° |
| 2026-05-01 09:07 | -33.95054 | 151.17717 | 18 ft | 28 kts | 345° |
| 2026-05-01 09:07 | -33.94859 | 151.17659 | 22 ft | 30 kts | 351° |
| 2026-05-01 09:07 | -33.94746 | 151.17606 | 22 ft | 8 kts | 286° |
| 2026-05-01 09:08 | -33.94751 | 151.17514 | 23 ft | 11 kts | 267° |
| 2026-05-01 09:08 | -33.94740 | 151.17468 | 25 ft | 0 kts | 294° |
| 2026-05-01 09:10 | -33.94737 | 151.17461 | 23 ft | 2 kts | 298° |
| 2026-05-01 09:10 | -33.94720 | 151.17434 | 25 ft | 6 kts | 313° |
| 2026-05-01 09:10 | -33.94673 | 151.17407 | 26 ft | 9 kts | 348° |
| 2026-05-01 09:10 | -33.94597 | 151.17388 | 25 ft | 14 kts | 347° |
| 2026-05-01 09:11 | -33.94486 | 151.17359 | 25 ft | 18 kts | 348° |
| 2026-05-01 09:11 | -33.94358 | 151.17316 | 26 ft | 19 kts | 343° |
| 2026-05-01 09:11 | -33.94247 | 151.17295 | 21 ft | 18 kts | 349° |
| 2026-05-01 09:11 | -33.94116 | 151.17262 | 21 ft | 20 kts | 347° |
| 2026-05-01 09:12 | -33.93990 | 151.17210 | 20 ft | 18 kts | 306° |
| 2026-05-01 09:12 | -33.94011 | 151.17057 | 19 ft | 20 kts | 255° |
| 2026-05-01 09:12 | -33.94049 | 151.16890 | 20 ft | 22 kts | 254° |
| 2026-05-01 09:12 | -33.94093 | 151.16707 | 20 ft | 19 kts | 255° |
| 2026-05-01 09:13 | -33.94079 | 151.16627 | 20 ft | 9 kts | 332° |
| 2026-05-01 09:13 | -33.94012 | 151.16613 | 20 ft | 11 kts | 343° |
| 2026-05-01 09:13 | -33.93993 | 151.16607 | 20 ft | 0 kts | 343° |